Weather at Aeródromo Villanueva del Pardillo

Public forecast

Using degrees Celsius for public forecast. Weather courtesy of forecast.io.

Closest aviation weather report (METAR) to Aeródromo Villanueva del Pardillo

Report is more than 6 hours old.

Closest report is Getafe Air Base, 17.4 nm (32.3 km) SE. Retrieved 2021/04/13 18:00 UTC (8 hours ago):

LEGT 131800Z 04007KT 9999 BKN049 14/07 Q1020

Closest aviation forecast (TAF) to Aeródromo Villanueva del Pardillo

Closest forecast is Base Aérea de Colmenar Viejo, 15.8 nm (29.2 km) NE. Retrieved 2021-04-14 00:00 UTC (2 hours ago):

TAF LECV 132300Z 1400/1424 02007KT 9999 FEW012 BKN040 TX17/1415Z TN07/1406Z PROB40 1404/1407 BKN010 BECMG 1406/1407 09008KT BECMG 1412/1413 14008KT PROB40 TEMPO 1413/1418 FEW025TCU PROB30 TEMPO 1416/1420 SHRA SCT025TCU BECMG 1419/1420 07007KT